Terminal Aerodrome Forecast
Issued by NWS

Home | Current Version | Previous Version | Text Only | Print | Product List | Glossary On
Versions: 1 2 3 4 5 6 7 8 9 10 11 12 13
000
FTUS44 KOUN 222320
TAFWWR
TAF
KWWR 222320Z 2300/2324 16009KT P6SM SCT150 BKN220
     FM230700 02010KT P6SM BKN050
     FM231500 03014G22KT P6SM BKN040 PROB30 2316/2322 5SM -TSRA
      OVC025CB=

USA.gov is the U.S. government's official web portal to all federal, state and local government web resources and services.